sensor_id;sensor_type;location;lat;lon;timestamp;P1;durP1;ratioP1;P2;durP2;ratioP2
2522;SDS011;1272;53.332;9.860;2024-03-06T00:02:07;13.03;;;7.60;;
2522;SDS011;1272;53.332;9.860;2024-03-06T00:04:33;14.50;;;8.80;;
2522;SDS011;1272;53.332;9.860;2024-03-06T00:07:00;12.90;;;8.37;;
2522;SDS011;1272;53.332;9.860;2024-03-06T00:09:26;14.13;;;7.97;;
2522;SDS011;1272;53.332;9.860;2024-03-06T00:11:53;13.10;;;8.30;;
2522;SDS011;1272;53.332;9.860;2024-03-06T00:14:19;11.40;;;6.87;;
2522;SDS011;1272;53.332;9.860;2024-03-06T00:16:46;8.57;;;7.33;;
2522;SDS011;1272;53.332;9.860;2024-03-06T00:19:12;13.00;;;7.97;;
2522;SDS011;1272;53.332;9.860;2024-03-06T00:21:38;11.00;;;6.57;;
2522;SDS011;1272;53.332;9.860;2024-03-06T00:24:04;11.20;;;8.30;;
2522;SDS011;1272;53.332;9.860;2024-03-06T00:26:30;13.57;;;7.60;;
2522;SDS011;1272;53.332;9.860;2024-03-06T00:28:56;9.87;;;7.23;;
2522;SDS011;1272;53.332;9.860;2024-03-06T00:31:22;15.37;;;8.50;;
2522;SDS011;1272;53.332;9.860;2024-03-06T00:33:48;11.30;;;7.30;;
2522;SDS011;1272;53.332;9.860;2024-03-06T00:36:13;14.03;;;8.17;;
2522;SDS011;1272;53.332;9.860;2024-03-06T00:38:39;12.30;;;7.70;;
2522;SDS011;1272;53.332;9.860;2024-03-06T00:41:05;11.70;;;7.13;;
2522;SDS011;1272;53.332;9.860;2024-03-06T00:43:31;10.40;;;7.00;;
2522;SDS011;1272;53.332;9.860;2024-03-06T00:45:56;12.23;;;6.80;;
2522;SDS011;1272;53.332;9.860;2024-03-06T00:48:22;11.27;;;8.23;;
2522;SDS011;1272;53.332;9.860;2024-03-06T00:50:48;11.67;;;7.80;;
2522;SDS011;1272;53.332;9.860;2024-03-06T00:53:13;8.83;;;6.87;;
2522;SDS011;1272;53.332;9.860;2024-03-06T00:55:39;11.00;;;7.67;;
2522;SDS011;1272;53.332;9.860;2024-03-06T00:58:05;11.33;;;7.53;;
2522;SDS011;1272;53.332;9.860;2024-03-06T01:00:32;9.30;;;7.03;;
2522;SDS011;1272;53.332;9.860;2024-03-06T01:02:57;10.60;;;8.53;;
2522;SDS011;1272;53.332;9.860;2024-03-06T01:05:23;10.77;;;7.60;;
2522;SDS011;1272;53.332;9.860;2024-03-06T01:07:49;11.43;;;7.30;;
2522;SDS011;1272;53.332;9.860;2024-03-06T01:10:15;11.53;;;7.70;;
2522;SDS011;1272;53.332;9.860;2024-03-06T01:12:40;10.73;;;7.23;;
2522;SDS011;1272;53.332;9.860;2024-03-06T01:15:10;11.63;;;7.67;;
2522;SDS011;1272;53.332;9.860;2024-03-06T01:17:36;9.20;;;6.37;;
2522;SDS011;1272;53.332;9.860;2024-03-06T01:20:02;9.90;;;7.70;;
2522;SDS011;1272;53.332;9.860;2024-03-06T01:22:31;12.87;;;7.47;;
2522;SDS011;1272;53.332;9.860;2024-03-06T01:24:58;9.73;;;6.40;;
2522;SDS011;1272;53.332;9.860;2024-03-06T01:27:25;9.70;;;7.70;;
2522;SDS011;1272;53.332;9.860;2024-03-06T01:29:51;10.60;;;6.67;;
2522;SDS011;1272;53.332;9.860;2024-03-06T01:32:17;8.23;;;7.40;;
2522;SDS011;1272;53.332;9.860;2024-03-06T01:34:42;13.70;;;7.20;;
2522;SDS011;1272;53.332;9.860;2024-03-06T01:37:08;12.43;;;8.03;;
2522;SDS011;1272;53.332;9.860;2024-03-06T01:39:34;7.33;;;5.50;;
2522;SDS011;1272;53.332;9.860;2024-03-06T01:42:01;10.23;;;7.20;;
2522;SDS011;1272;53.332;9.860;2024-03-06T01:44:27;11.10;;;6.90;;
2522;SDS011;1272;53.332;9.860;2024-03-06T01:46:52;8.93;;;5.87;;
2522;SDS011;1272;53.332;9.860;2024-03-06T01:49:19;10.23;;;7.37;;
2522;SDS011;1272;53.332;9.860;2024-03-06T01:51:54;11.17;;;6.50;;
2522;SDS011;1272;53.332;9.860;2024-03-06T01:54:22;8.83;;;6.80;;
2522;SDS011;1272;53.332;9.860;2024-03-06T01:56:49;11.23;;;6.10;;
2522;SDS011;1272;53.332;9.860;2024-03-06T01:59:16;9.03;;;6.93;;
2522;SDS011;1272;53.332;9.860;2024-03-06T02:01:44;8.23;;;6.13;;
2522;SDS011;1272;53.332;9.860;2024-03-06T02:04:11;8.93;;;6.13;;
2522;SDS011;1272;53.332;9.860;2024-03-06T02:06:40;9.80;;;6.90;;
2522;SDS011;1272;53.332;9.860;2024-03-06T02:09:06;12.07;;;6.93;;
2522;SDS011;1272;53.332;9.860;2024-03-06T02:11:33;8.90;;;5.63;;
2522;SDS011;1272;53.332;9.860;2024-03-06T02:13:59;10.70;;;6.43;;
2522;SDS011;1272;53.332;9.860;2024-03-06T02:16:24;10.87;;;5.93;;
2522;SDS011;1272;53.332;9.860;2024-03-06T02:18:52;10.40;;;6.67;;
2522;SDS011;1272;53.332;9.860;2024-03-06T02:21:19;12.27;;;7.17;;
2522;SDS011;1272;53.332;9.860;2024-03-06T02:23:48;12.73;;;6.17;;
2522;SDS011;1272;53.332;9.860;2024-03-06T02:26:16;9.23;;;5.57;;
2522;SDS011;1272;53.332;9.860;2024-03-06T02:28:48;12.10;;;6.63;;
2522;SDS011;1272;53.332;9.860;2024-03-06T02:31:18;13.53;;;6.63;;
2522;SDS011;1272;53.332;9.860;2024-03-06T02:33:45;9.70;;;6.53;;
2522;SDS011;1272;53.332;9.860;2024-03-06T02:36:14;13.67;;;7.77;;
2522;SDS011;1272;53.332;9.860;2024-03-06T02:38:42;12.27;;;8.07;;
2522;SDS011;1272;53.332;9.860;2024-03-06T02:41:08;13.87;;;7.57;;
2522;SDS011;1272;53.332;9.860;2024-03-06T02:43:34;9.60;;;6.30;;
2522;SDS011;1272;53.332;9.860;2024-03-06T02:46:00;8.10;;;6.00;;
2522;SDS011;1272;53.332;9.860;2024-03-06T02:48:26;8.50;;;5.83;;
2522;SDS011;1272;53.332;9.860;2024-03-06T02:50:51;12.10;;;6.73;;
2522;SDS011;1272;53.332;9.860;2024-03-06T02:53:17;8.20;;;6.80;;
2522;SDS011;1272;53.332;9.860;2024-03-06T02:55:43;11.43;;;6.40;;
2522;SDS011;1272;53.332;9.860;2024-03-06T02:58:09;9.13;;;7.03;;
2522;SDS011;1272;53.332;9.860;2024-03-06T03:00:35;9.23;;;6.37;;
2522;SDS011;1272;53.332;9.860;2024-03-06T03:03:00;8.50;;;6.00;;
2522;SDS011;1272;53.332;9.860;2024-03-06T03:05:26;10.03;;;6.40;;
2522;SDS011;1272;53.332;9.860;2024-03-06T03:07:52;10.90;;;7.00;;
2522;SDS011;1272;53.332;9.860;2024-03-06T03:10:17;20.30;;;6.77;;
2522;SDS011;1272;53.332;9.860;2024-03-06T03:12:43;11.00;;;7.00;;
2522;SDS011;1272;53.332;9.860;2024-03-06T03:15:09;9.30;;;6.47;;
2522;SDS011;1272;53.332;9.860;2024-03-06T03:17:35;7.10;;;6.40;;
2522;SDS011;1272;53.332;9.860;2024-03-06T03:20:01;12.43;;;6.80;;
2522;SDS011;1272;53.332;9.860;2024-03-06T03:22:38;14.53;;;7.70;;
2522;SDS011;1272;53.332;9.860;2024-03-06T03:25:10;9.93;;;7.40;;
2522;SDS011;1272;53.332;9.860;2024-03-06T03:27:39;13.17;;;8.00;;
2522;SDS011;1272;53.332;9.860;2024-03-06T03:30:08;8.73;;;6.90;;
2522;SDS011;1272;53.332;9.860;2024-03-06T03:32:35;10.33;;;6.30;;
2522;SDS011;1272;53.332;9.860;2024-03-06T03:35:01;12.10;;;6.80;;
2522;SDS011;1272;53.332;9.860;2024-03-06T03:37:28;9.57;;;6.60;;
2522;SDS011;1272;53.332;9.860;2024-03-06T03:39:53;8.77;;;6.50;;
2522;SDS011;1272;53.332;9.860;2024-03-06T03:42:19;13.17;;;6.83;;
2522;SDS011;1272;53.332;9.860;2024-03-06T03:44:45;8.60;;;6.23;;
2522;SDS011;1272;53.332;9.860;2024-03-06T03:47:11;8.80;;;6.37;;
2522;SDS011;1272;53.332;9.860;2024-03-06T03:49:37;9.83;;;6.47;;
2522;SDS011;1272;53.332;9.860;2024-03-06T03:52:03;12.93;;;6.77;;
2522;SDS011;1272;53.332;9.860;2024-03-06T03:54:29;9.43;;;6.80;;
2522;SDS011;1272;53.332;9.860;2024-03-06T03:56:54;10.67;;;7.40;;
2522;SDS011;1272;53.332;9.860;2024-03-06T03:59:20;8.10;;;6.23;;
2522;SDS011;1272;53.332;9.860;2024-03-06T04:01:46;9.17;;;6.70;;
2522;SDS011;1272;53.332;9.860;2024-03-06T04:04:12;10.50;;;6.30;;
2522;SDS011;1272;53.332;9.860;2024-03-06T04:06:38;10.70;;;6.73;;
2522;SDS011;1272;53.332;9.860;2024-03-06T04:09:03;6.97;;;5.30;;
2522;SDS011;1272;53.332;9.860;2024-03-06T04:11:30;10.07;;;5.73;;
2522;SDS011;1272;53.332;9.860;2024-03-06T04:13:58;8.70;;;6.00;;
2522;SDS011;1272;53.332;9.860;2024-03-06T04:16:24;10.43;;;5.47;;
2522;SDS011;1272;53.332;9.860;2024-03-06T04:18:49;8.10;;;6.90;;
2522;SDS011;1272;53.332;9.860;2024-03-06T04:21:15;10.00;;;5.37;;
2522;SDS011;1272;53.332;9.860;2024-03-06T04:23:41;9.00;;;5.60;;
2522;SDS011;1272;53.332;9.860;2024-03-06T04:26:08;11.90;;;7.10;;
2522;SDS011;1272;53.332;9.860;2024-03-06T04:28:34;12.27;;;6.67;;
2522;SDS011;1272;53.332;9.860;2024-03-06T04:31:00;8.47;;;6.10;;
2522;SDS011;1272;53.332;9.860;2024-03-06T04:33:25;6.80;;;5.50;;
2522;SDS011;1272;53.332;9.860;2024-03-06T04:35:51;11.00;;;6.33;;
2522;SDS011;1272;53.332;9.860;2024-03-06T04:38:17;8.77;;;6.20;;
2522;SDS011;1272;53.332;9.860;2024-03-06T04:40:43;12.43;;;7.20;;
2522;SDS011;1272;53.332;9.860;2024-03-06T04:43:09;10.17;;;6.40;;
2522;SDS011;1272;53.332;9.860;2024-03-06T04:45:35;13.30;;;6.40;;
2522;SDS011;1272;53.332;9.860;2024-03-06T04:48:01;8.30;;;5.37;;
2522;SDS011;1272;53.332;9.860;2024-03-06T04:50:27;11.33;;;7.33;;
2522;SDS011;1272;53.332;9.860;2024-03-06T04:52:53;12.00;;;6.90;;
2522;SDS011;1272;53.332;9.860;2024-03-06T04:55:18;8.23;;;6.00;;
2522;SDS011;1272;53.332;9.860;2024-03-06T04:57:48;7.20;;;5.37;;
2522;SDS011;1272;53.332;9.860;2024-03-06T05:00:14;9.10;;;6.13;;
2522;SDS011;1272;53.332;9.860;2024-03-06T05:02:40;10.27;;;5.83;;
2522;SDS011;1272;53.332;9.860;2024-03-06T05:05:07;11.23;;;6.37;;
2522;SDS011;1272;53.332;9.860;2024-03-06T05:07:36;10.07;;;6.80;;
2522;SDS011;1272;53.332;9.860;2024-03-06T05:10:02;8.40;;;5.97;;
2522;SDS011;1272;53.332;9.860;2024-03-06T05:12:28;10.70;;;6.90;;
2522;SDS011;1272;53.332;9.860;2024-03-06T05:14:54;17.83;;;6.13;;
2522;SDS011;1272;53.332;9.860;2024-03-06T05:17:20;10.90;;;6.87;;
2522;SDS011;1272;53.332;9.860;2024-03-06T05:19:47;8.50;;;5.20;;
2522;SDS011;1272;53.332;9.860;2024-03-06T05:22:14;8.20;;;5.90;;
2522;SDS011;1272;53.332;9.860;2024-03-06T05:24:40;9.80;;;6.43;;
2522;SDS011;1272;53.332;9.860;2024-03-06T05:27:09;8.33;;;5.60;;
2522;SDS011;1272;53.332;9.860;2024-03-06T05:29:38;10.10;;;5.90;;
2522;SDS011;1272;53.332;9.860;2024-03-06T05:32:04;8.40;;;6.60;;
2522;SDS011;1272;53.332;9.860;2024-03-06T05:34:32;11.50;;;6.57;;
2522;SDS011;1272;53.332;9.860;2024-03-06T05:36:58;7.80;;;5.57;;
2522;SDS011;1272;53.332;9.860;2024-03-06T05:39:24;7.60;;;6.23;;
2522;SDS011;1272;53.332;9.860;2024-03-06T05:41:50;11.70;;;6.00;;
2522;SDS011;1272;53.332;9.860;2024-03-06T05:44:16;8.93;;;5.73;;
2522;SDS011;1272;53.332;9.860;2024-03-06T05:46:41;10.17;;;6.10;;
2522;SDS011;1272;53.332;9.860;2024-03-06T05:49:07;10.80;;;7.20;;
2522;SDS011;1272;53.332;9.860;2024-03-06T05:51:33;11.90;;;6.90;;
2522;SDS011;1272;53.332;9.860;2024-03-06T05:53:59;8.63;;;6.50;;
2522;SDS011;1272;53.332;9.860;2024-03-06T05:56:24;9.17;;;7.30;;
2522;SDS011;1272;53.332;9.860;2024-03-06T05:58:50;9.10;;;5.93;;
2522;SDS011;1272;53.332;9.860;2024-03-06T06:01:16;14.30;;;7.87;;
2522;SDS011;1272;53.332;9.860;2024-03-06T06:03:48;14.27;;;6.93;;
2522;SDS011;1272;53.332;9.860;2024-03-06T06:06:17;8.10;;;6.10;;
2522;SDS011;1272;53.332;9.860;2024-03-06T06:08:45;8.63;;;6.77;;
2522;SDS011;1272;53.332;9.860;2024-03-06T06:11:11;12.20;;;8.03;;
2522;SDS011;1272;53.332;9.860;2024-03-06T06:13:38;11.23;;;8.50;;
2522;SDS011;1272;53.332;9.860;2024-03-06T06:16:04;17.27;;;8.20;;
2522;SDS011;1272;53.332;9.860;2024-03-06T06:18:30;11.40;;;7.60;;
2522;SDS011;1272;53.332;9.860;2024-03-06T06:20:57;8.30;;;7.30;;
2522;SDS011;1272;53.332;9.860;2024-03-06T06:23:23;8.10;;;7.00;;
2522;SDS011;1272;53.332;9.860;2024-03-06T06:25:49;8.70;;;6.17;;
2522;SDS011;1272;53.332;9.860;2024-03-06T06:28:14;9.87;;;6.40;;
2522;SDS011;1272;53.332;9.860;2024-03-06T06:30:40;11.40;;;6.00;;
2522;SDS011;1272;53.332;9.860;2024-03-06T06:33:06;8.73;;;6.60;;
2522;SDS011;1272;53.332;9.860;2024-03-06T06:35:33;9.60;;;5.97;;
2522;SDS011;1272;53.332;9.860;2024-03-06T06:37:59;11.67;;;6.80;;
2522;SDS011;1272;53.332;9.860;2024-03-06T06:40:26;13.13;;;5.97;;
2522;SDS011;1272;53.332;9.860;2024-03-06T06:42:53;8.40;;;5.73;;
2522;SDS011;1272;53.332;9.860;2024-03-06T06:45:19;9.33;;;6.53;;
2522;SDS011;1272;53.332;9.860;2024-03-06T06:47:46;7.03;;;5.50;;
2522;SDS011;1272;53.332;9.860;2024-03-06T06:50:15;9.03;;;6.50;;
2522;SDS011;1272;53.332;9.860;2024-03-06T06:52:41;19.03;;;7.43;;
2522;SDS011;1272;53.332;9.860;2024-03-06T06:55:07;10.50;;;6.67;;
2522;SDS011;1272;53.332;9.860;2024-03-06T06:57:36;10.23;;;7.33;;
2522;SDS011;1272;53.332;9.860;2024-03-06T07:00:03;10.50;;;7.10;;
2522;SDS011;1272;53.332;9.860;2024-03-06T07:02:36;12.47;;;7.77;;
2522;SDS011;1272;53.332;9.860;2024-03-06T07:05:03;10.83;;;7.67;;
2522;SDS011;1272;53.332;9.860;2024-03-06T07:07:29;12.20;;;8.13;;
2522;SDS011;1272;53.332;9.860;2024-03-06T07:09:55;12.93;;;8.40;;
2522;SDS011;1272;53.332;9.860;2024-03-06T07:12:21;9.37;;;6.53;;
2522;SDS011;1272;53.332;9.860;2024-03-06T07:14:47;13.77;;;7.40;;
2522;SDS011;1272;53.332;9.860;2024-03-06T07:17:12;11.33;;;7.20;;
2522;SDS011;1272;53.332;9.860;2024-03-06T07:19:38;11.00;;;8.00;;
2522;SDS011;1272;53.332;9.860;2024-03-06T07:22:04;11.10;;;6.93;;
2522;SDS011;1272;53.332;9.860;2024-03-06T07:24:30;14.70;;;7.10;;
2522;SDS011;1272;53.332;9.860;2024-03-06T07:26:56;10.07;;;7.50;;
2522;SDS011;1272;53.332;9.860;2024-03-06T07:29:21;11.53;;;7.67;;
2522;SDS011;1272;53.332;9.860;2024-03-06T07:31:47;13.90;;;7.87;;
2522;SDS011;1272;53.332;9.860;2024-03-06T07:34:13;13.20;;;9.20;;
2522;SDS011;1272;53.332;9.860;2024-03-06T07:36:39;15.13;;;7.77;;
2522;SDS011;1272;53.332;9.860;2024-03-06T07:39:05;15.17;;;10.07;;
2522;SDS011;1272;53.332;9.860;2024-03-06T07:41:32;14.80;;;8.30;;
2522;SDS011;1272;53.332;9.860;2024-03-06T07:43:58;9.17;;;8.00;;
2522;SDS011;1272;53.332;9.860;2024-03-06T07:46:25;11.80;;;7.37;;
2522;SDS011;1272;53.332;9.860;2024-03-06T07:48:50;11.50;;;7.30;;
2522;SDS011;1272;53.332;9.860;2024-03-06T07:51:17;11.63;;;7.90;;
2522;SDS011;1272;53.332;9.860;2024-03-06T07:53:43;13.73;;;8.10;;
2522;SDS011;1272;53.332;9.860;2024-03-06T07:56:12;11.87;;;7.70;;
2522;SDS011;1272;53.332;9.860;2024-03-06T07:58:38;12.73;;;7.50;;
2522;SDS011;1272;53.332;9.860;2024-03-06T08:01:04;13.83;;;9.60;;
2522;SDS011;1272;53.332;9.860;2024-03-06T08:03:32;12.30;;;8.43;;
2522;SDS011;1272;53.332;9.860;2024-03-06T08:05:59;10.70;;;8.13;;
2522;SDS011;1272;53.332;9.860;2024-03-06T08:08:25;10.60;;;7.80;;
2522;SDS011;1272;53.332;9.860;2024-03-06T08:10:50;13.47;;;8.30;;
2522;SDS011;1272;53.332;9.860;2024-03-06T08:13:16;9.20;;;8.00;;
2522;SDS011;1272;53.332;9.860;2024-03-06T08:15:45;14.77;;;8.93;;
2522;SDS011;1272;53.332;9.860;2024-03-06T08:18:11;18.00;;;9.30;;
2522;SDS011;1272;53.332;9.860;2024-03-06T08:20:38;13.70;;;8.40;;
2522;SDS011;1272;53.332;9.860;2024-03-06T08:23:04;11.73;;;7.90;;
2522;SDS011;1272;53.332;9.860;2024-03-06T08:25:29;20.40;;;9.20;;
2522;SDS011;1272;53.332;9.860;2024-03-06T08:27:57;15.30;;;8.30;;
2522;SDS011;1272;53.332;9.860;2024-03-06T08:30:24;12.60;;;9.23;;
2522;SDS011;1272;53.332;9.860;2024-03-06T08:32:50;10.80;;;8.30;;
2522;SDS011;1272;53.332;9.860;2024-03-06T08:35:16;12.97;;;9.10;;
2522;SDS011;1272;53.332;9.860;2024-03-06T08:37:45;12.27;;;9.20;;
2522;SDS011;1272;53.332;9.860;2024-03-06T08:40:10;11.77;;;8.73;;
2522;SDS011;1272;53.332;9.860;2024-03-06T08:42:49;11.57;;;9.00;;
2522;SDS011;1272;53.332;9.860;2024-03-06T08:45:15;14.40;;;9.80;;
2522;SDS011;1272;53.332;9.860;2024-03-06T08:47:43;13.90;;;8.70;;
2522;SDS011;1272;53.332;9.860;2024-03-06T08:50:09;13.30;;;8.90;;
2522;SDS011;1272;53.332;9.860;2024-03-06T08:52:35;12.77;;;9.40;;
2522;SDS011;1272;53.332;9.860;2024-03-06T08:55:02;18.30;;;9.67;;
2522;SDS011;1272;53.332;9.860;2024-03-06T08:57:36;12.97;;;9.20;;
2522;SDS011;1272;53.332;9.860;2024-03-06T09:00:03;12.57;;;8.53;;
2522;SDS011;1272;53.332;9.860;2024-03-06T09:02:33;12.17;;;8.30;;
2522;SDS011;1272;53.332;9.860;2024-03-06T09:04:59;12.23;;;8.97;;
2522;SDS011;1272;53.332;9.860;2024-03-06T09:07:25;9.27;;;7.67;;
2522;SDS011;1272;53.332;9.860;2024-03-06T09:09:50;15.10;;;9.80;;
2522;SDS011;1272;53.332;9.860;2024-03-06T09:12:17;15.73;;;10.23;;
2522;SDS011;1272;53.332;9.860;2024-03-06T09:14:43;14.40;;;8.23;;
2522;SDS011;1272;53.332;9.860;2024-03-06T09:17:10;11.23;;;8.03;;
2522;SDS011;1272;53.332;9.860;2024-03-06T09:19:38;16.00;;;9.77;;
2522;SDS011;1272;53.332;9.860;2024-03-06T09:22:03;18.10;;;11.00;;
2522;SDS011;1272;53.332;9.860;2024-03-06T09:24:29;13.97;;;9.90;;
2522;SDS011;1272;53.332;9.860;2024-03-06T09:26:55;15.40;;;9.10;;
2522;SDS011;1272;53.332;9.860;2024-03-06T09:29:21;14.53;;;10.57;;
2522;SDS011;1272;53.332;9.860;2024-03-06T09:31:47;10.63;;;8.47;;
2522;SDS011;1272;53.332;9.860;2024-03-06T09:34:13;14.97;;;9.50;;
2522;SDS011;1272;53.332;9.860;2024-03-06T09:36:40;15.23;;;10.10;;
2522;SDS011;1272;53.332;9.860;2024-03-06T09:39:10;14.10;;;9.57;;
2522;SDS011;1272;53.332;9.860;2024-03-06T09:41:36;14.77;;;10.33;;
2522;SDS011;1272;53.332;9.860;2024-03-06T09:44:04;16.17;;;10.63;;
2522;SDS011;1272;53.332;9.860;2024-03-06T09:46:30;21.63;;;11.03;;
2522;SDS011;1272;53.332;9.860;2024-03-06T09:48:55;12.87;;;9.20;;
2522;SDS011;1272;53.332;9.860;2024-03-06T09:51:21;15.63;;;9.93;;
2522;SDS011;1272;53.332;9.860;2024-03-06T09:53:47;16.87;;;11.40;;
2522;SDS011;1272;53.332;9.860;2024-03-06T09:56:16;17.53;;;11.37;;
2522;SDS011;1272;53.332;9.860;2024-03-06T09:58:44;20.73;;;11.93;;
2522;SDS011;1272;53.332;9.860;2024-03-06T10:01:10;16.20;;;9.90;;
2522;SDS011;1272;53.332;9.860;2024-03-06T10:03:38;17.07;;;10.50;;
2522;SDS011;1272;53.332;9.860;2024-03-06T10:06:07;16.30;;;10.37;;
2522;SDS011;1272;53.332;9.860;2024-03-06T10:08:33;22.83;;;10.43;;
2522;SDS011;1272;53.332;9.860;2024-03-06T10:11:00;15.80;;;11.03;;
2522;SDS011;1272;53.332;9.860;2024-03-06T10:13:26;14.40;;;10.00;;
2522;SDS011;1272;53.332;9.860;2024-03-06T10:16:10;18.13;;;10.67;;
2522;SDS011;1272;53.332;9.860;2024-03-06T10:18:36;15.93;;;10.77;;
2522;SDS011;1272;53.332;9.860;2024-03-06T10:21:05;16.07;;;9.70;;
2522;SDS011;1272;53.332;9.860;2024-03-06T10:23:31;15.53;;;9.53;;
2522;SDS011;1272;53.332;9.860;2024-03-06T10:25:57;14.97;;;9.73;;
2522;SDS011;1272;53.332;9.860;2024-03-06T10:28:23;15.30;;;10.40;;
2522;SDS011;1272;53.332;9.860;2024-03-06T10:30:49;15.30;;;10.20;;
2522;SDS011;1272;53.332;9.860;2024-03-06T10:33:17;14.90;;;9.97;;
2522;SDS011;1272;53.332;9.860;2024-03-06T10:35:46;15.47;;;9.10;;
2522;SDS011;1272;53.332;9.860;2024-03-06T10:38:16;11.57;;;8.17;;
2522;SDS011;1272;53.332;9.860;2024-03-06T10:40:44;14.13;;;9.30;;
2522;SDS011;1272;53.332;9.860;2024-03-06T10:43:10;12.07;;;9.90;;
2522;SDS011;1272;53.332;9.860;2024-03-06T10:48:13;14.27;;;9.80;;
2522;SDS011;1272;53.332;9.860;2024-03-06T10:50:40;12.47;;;8.43;;
2522;SDS011;1272;53.332;9.860;2024-03-06T10:53:09;13.80;;;9.73;;
2522;SDS011;1272;53.332;9.860;2024-03-06T10:55:39;14.80;;;9.37;;
2522;SDS011;1272;53.332;9.860;2024-03-06T10:58:06;13.00;;;9.43;;
2522;SDS011;1272;53.332;9.860;2024-03-06T11:00:43;15.53;;;9.50;;
2522;SDS011;1272;53.332;9.860;2024-03-06T11:03:13;12.27;;;8.77;;
2522;SDS011;1272;53.332;9.860;2024-03-06T11:05:43;17.73;;;9.70;;
2522;SDS011;1272;53.332;9.860;2024-03-06T11:08:12;11.10;;;9.60;;
2522;SDS011;1272;53.332;9.860;2024-03-06T11:10:39;11.23;;;8.40;;
2522;SDS011;1272;53.332;9.860;2024-03-06T11:15:50;12.53;;;8.57;;
2522;SDS011;1272;53.332;9.860;2024-03-06T11:23:26;11.67;;;8.37;;
2522;SDS011;1272;53.332;9.860;2024-03-06T11:28:21;10.13;;;7.37;;
2522;SDS011;1272;53.332;9.860;2024-03-06T11:30:55;13.90;;;8.50;;
2522;SDS011;1272;53.332;9.860;2024-03-06T11:39:04;10.43;;;9.37;;
2522;SDS011;1272;53.332;9.860;2024-03-06T11:44:12;12.43;;;9.17;;
2522;SDS011;1272;53.332;9.860;2024-03-06T11:49:37;10.03;;;9.03;;
2522;SDS011;1272;53.332;9.860;2024-03-06T11:52:06;12.43;;;9.10;;
2522;SDS011;1272;53.332;9.860;2024-03-06T11:54:33;15.33;;;8.87;;
2522;SDS011;1272;53.332;9.860;2024-03-06T11:57:00;12.23;;;8.60;;
2522;SDS011;1272;53.332;9.860;2024-03-06T11:59:31;11.40;;;9.00;;
2522;SDS011;1272;53.332;9.860;2024-03-06T12:01:58;11.57;;;8.97;;
2522;SDS011;1272;53.332;9.860;2024-03-06T12:04:28;12.10;;;9.07;;
2522;SDS011;1272;53.332;9.860;2024-03-06T12:06:56;12.07;;;9.33;;
2522;SDS011;1272;53.332;9.860;2024-03-06T12:09:30;15.07;;;9.80;;
2522;SDS011;1272;53.332;9.860;2024-03-06T12:11:55;13.73;;;9.03;;
2522;SDS011;1272;53.332;9.860;2024-03-06T12:14:22;10.07;;;8.37;;
2522;SDS011;1272;53.332;9.860;2024-03-06T12:16:58;10.30;;;8.53;;
2522;SDS011;1272;53.332;9.860;2024-03-06T12:19:31;15.47;;;10.40;;
2522;SDS011;1272;53.332;9.860;2024-03-06T12:22:04;14.17;;;11.53;;
2522;SDS011;1272;53.332;9.860;2024-03-06T12:24:30;11.13;;;8.60;;
2522;SDS011;1272;53.332;9.860;2024-03-06T12:27:02;8.50;;;7.60;;
2522;SDS011;1272;53.332;9.860;2024-03-06T12:29:30;10.00;;;7.83;;
2522;SDS011;1272;53.332;9.860;2024-03-06T12:31:57;15.90;;;9.43;;
2522;SDS011;1272;53.332;9.860;2024-03-06T12:34:24;10.20;;;8.70;;
2522;SDS011;1272;53.332;9.860;2024-03-06T12:36:50;10.63;;;7.83;;
2522;SDS011;1272;53.332;9.860;2024-03-06T12:39:16;10.53;;;8.90;;
2522;SDS011;1272;53.332;9.860;2024-03-06T12:41:51;13.87;;;10.40;;
2522;SDS011;1272;53.332;9.860;2024-03-06T12:44:18;10.73;;;8.63;;
2522;SDS011;1272;53.332;9.860;2024-03-06T12:46:45;13.17;;;9.27;;
2522;SDS011;1272;53.332;9.860;2024-03-06T12:49:11;10.77;;;8.23;;
2522;SDS011;1272;53.332;9.860;2024-03-06T12:51:36;12.37;;;8.60;;
2522;SDS011;1272;53.332;9.860;2024-03-06T12:54:02;11.07;;;8.00;;
2522;SDS011;1272;53.332;9.860;2024-03-06T12:56:28;11.40;;;8.80;;
2522;SDS011;1272;53.332;9.860;2024-03-06T12:58:54;9.50;;;7.87;;
2522;SDS011;1272;53.332;9.860;2024-03-06T13:01:20;7.90;;;7.17;;
2522;SDS011;1272;53.332;9.860;2024-03-06T13:03:45;8.30;;;7.20;;
2522;SDS011;1272;53.332;9.860;2024-03-06T13:06:11;9.77;;;8.03;;
2522;SDS011;1272;53.332;9.860;2024-03-06T13:08:37;10.70;;;8.33;;
2522;SDS011;1272;53.332;9.860;2024-03-06T13:11:03;14.30;;;9.63;;
2522;SDS011;1272;53.332;9.860;2024-03-06T13:13:28;10.60;;;9.40;;
2522;SDS011;1272;53.332;9.860;2024-03-06T13:15:55;11.63;;;9.03;;
2522;SDS011;1272;53.332;9.860;2024-03-06T13:18:21;10.37;;;8.07;;
2522;SDS011;1272;53.332;9.860;2024-03-06T13:20:47;10.83;;;8.30;;
2522;SDS011;1272;53.332;9.860;2024-03-06T13:23:13;11.47;;;9.57;;
2522;SDS011;1272;53.332;9.860;2024-03-06T13:25:39;10.30;;;8.20;;
2522;SDS011;1272;53.332;9.860;2024-03-06T13:28:05;10.33;;;7.83;;
2522;SDS011;1272;53.332;9.860;2024-03-06T13:30:31;9.90;;;8.30;;
2522;SDS011;1272;53.332;9.860;2024-03-06T13:32:57;15.90;;;10.53;;
2522;SDS011;1272;53.332;9.860;2024-03-06T13:35:23;13.77;;;9.57;;
2522;SDS011;1272;53.332;9.860;2024-03-06T13:37:49;14.70;;;9.33;;
2522;SDS011;1272;53.332;9.860;2024-03-06T13:40:15;11.03;;;8.70;;
2522;SDS011;1272;53.332;9.860;2024-03-06T13:42:41;12.00;;;7.80;;
2522;SDS011;1272;53.332;9.860;2024-03-06T13:45:08;12.43;;;8.07;;
2522;SDS011;1272;53.332;9.860;2024-03-06T13:47:39;14.87;;;8.77;;
2522;SDS011;1272;53.332;9.860;2024-03-06T13:50:14;9.50;;;7.47;;
2522;SDS011;1272;53.332;9.860;2024-03-06T13:52:42;9.80;;;8.47;;
2522;SDS011;1272;53.332;9.860;2024-03-06T13:55:08;10.30;;;7.93;;
2522;SDS011;1272;53.332;9.860;2024-03-06T13:57:35;14.30;;;8.43;;
2522;SDS011;1272;53.332;9.860;2024-03-06T14:00:02;11.13;;;9.00;;
2522;SDS011;1272;53.332;9.860;2024-03-06T14:02:37;12.23;;;9.37;;
2522;SDS011;1272;53.332;9.860;2024-03-06T14:05:03;12.10;;;8.90;;
2522;SDS011;1272;53.332;9.860;2024-03-06T14:07:31;8.57;;;7.67;;
2522;SDS011;1272;53.332;9.860;2024-03-06T14:10:00;7.53;;;6.77;;
2522;SDS011;1272;53.332;9.860;2024-03-06T14:12:26;8.53;;;7.63;;
2522;SDS011;1272;53.332;9.860;2024-03-06T14:14:51;14.30;;;9.30;;
2522;SDS011;1272;53.332;9.860;2024-03-06T14:17:17;10.40;;;8.60;;
2522;SDS011;1272;53.332;9.860;2024-03-06T14:19:46;10.50;;;8.20;;
2522;SDS011;1272;53.332;9.860;2024-03-06T14:22:11;10.40;;;8.07;;
2522;SDS011;1272;53.332;9.860;2024-03-06T14:24:46;14.20;;;7.90;;
2522;SDS011;1272;53.332;9.860;2024-03-06T14:27:21;10.60;;;7.60;;
2522;SDS011;1272;53.332;9.860;2024-03-06T14:29:46;11.00;;;8.63;;
2522;SDS011;1272;53.332;9.860;2024-03-06T14:32:12;11.40;;;8.07;;
2522;SDS011;1272;53.332;9.860;2024-03-06T14:34:39;11.10;;;7.80;;
2522;SDS011;1272;53.332;9.860;2024-03-06T14:37:04;9.50;;;7.63;;
2522;SDS011;1272;53.332;9.860;2024-03-06T14:39:30;10.30;;;8.37;;
2522;SDS011;1272;53.332;9.860;2024-03-06T14:41:56;10.97;;;7.60;;
2522;SDS011;1272;53.332;9.860;2024-03-06T14:44:21;10.37;;;7.77;;
2522;SDS011;1272;53.332;9.860;2024-03-06T14:46:47;9.53;;;8.27;;
2522;SDS011;1272;53.332;9.860;2024-03-06T14:49:13;10.67;;;7.10;;
2522;SDS011;1272;53.332;9.860;2024-03-06T14:51:41;11.27;;;7.50;;
2522;SDS011;1272;53.332;9.860;2024-03-06T14:54:06;8.73;;;7.07;;
2522;SDS011;1272;53.332;9.860;2024-03-06T14:56:32;8.37;;;6.93;;
2522;SDS011;1272;53.332;9.860;2024-03-06T14:58:58;8.13;;;6.13;;
2522;SDS011;1272;53.332;9.860;2024-03-06T15:01:24;8.90;;;7.43;;
2522;SDS011;1272;53.332;9.860;2024-03-06T15:03:50;8.03;;;6.80;;
2522;SDS011;1272;53.332;9.860;2024-03-06T15:06:17;10.90;;;7.10;;
2522;SDS011;1272;53.332;9.860;2024-03-06T15:08:43;7.20;;;6.40;;
2522;SDS011;1272;53.332;9.860;2024-03-06T15:11:10;9.60;;;7.20;;
2522;SDS011;1272;53.332;9.860;2024-03-06T15:13:36;8.40;;;6.60;;
2522;SDS011;1272;53.332;9.860;2024-03-06T15:16:02;9.50;;;7.47;;
2522;SDS011;1272;53.332;9.860;2024-03-06T15:18:31;8.83;;;7.30;;
2522;SDS011;1272;53.332;9.860;2024-03-06T15:20:59;10.40;;;7.37;;
2522;SDS011;1272;53.332;9.860;2024-03-06T15:23:25;7.70;;;6.90;;
2522;SDS011;1272;53.332;9.860;2024-03-06T15:25:51;7.50;;;6.60;;
2522;SDS011;1272;53.332;9.860;2024-03-06T15:28:16;10.67;;;6.50;;